This is the latest recevied weather packets stored in our database for station/object SR9WXJ. If no packets are shown the sender has not sent any weather packets the latest 1 day(s).
| Time | Temp. | Humidity | Pressure | Rain* | Wind** | Luminosity | Snow |
|---|---|---|---|---|---|---|---|
| 1778025493 | 15° C | 100% | 789.9 hPa | - | 0.89 m/s, 179° | - | - |
| 1778024764 | 14.44° C | 100% | 789.9 hPa | - | 1.34 m/s, 114° | - | - |
| 1778024032 | 14.44° C | 100% | 789.9 hPa | - | 1.34 m/s, 234° | - | - |
| 1778023299 | 15.56° C | 100% | 789.9 hPa | - | 1.34 m/s, 267° | - | - |
| 1778022569 | 15.56° C | 100% | 789.9 hPa | - | 0.89 m/s, 195° | - | - |
| 1778021840 | 15° C | 100% | 789.9 hPa | - | 0.89 m/s, 25° | - | - |
| 1778021110 | 15.56° C | 100% | 789.9 hPa | - | 0.89 m/s, 166° | - | - |
| 1778020377 | 15.56° C | 100% | 789.9 hPa | - | 0.89 m/s, 25° | - | - |
| 1778019648 | 16.11° C | 100% | 789.9 hPa | - | 1.34 m/s, 109° | - | - |
| 1778018918 | 16.11° C | 100% | 789.9 hPa | - | 0.89 m/s, 39° | - | - |
| 1778018196 | 16.11° C | 100% | 789.9 hPa | - | 0.89 m/s, 105° | - | - |
| 1778017463 | 16.11° C | 100% | 789.9 hPa | - | 0.89 m/s, 97° | - | - |
| 1778016733 | 16.67° C | 100% | 789.9 hPa | - | 0.89 m/s, 97° | - | - |
| 1778015274 | 17.22° C | 100% | 789.9 hPa | - | 0.89 m/s, 143° | - | - |
| 1778014541 | 17.22° C | 100% | 789.9 hPa | - | 0.89 m/s, 172° | - | - |
| 1778013811 | 17.78° C | 100% | 789.9 hPa | - | 0.89 m/s, 136° | - | - |
| 1778013082 | 17.22° C | 100% | 789.9 hPa | - | 0.89 m/s, 64° | - | - |
| 1778012352 | 17.78° C | 100% | 789.9 hPa | - | 1.34 m/s, 141° | - | - |
| 1778011619 | 17.22° C | 100% | 789.9 hPa | - | 1.79 m/s, 75° | - | - |
| 1778010156 | 17.78° C | 100% | 789.9 hPa | - | 0.89 m/s, 120° | - | - |
| 1778009426 | 18.33° C | 100% | 789.9 hPa | - | 0.89 m/s, 343° | - | - |
| 1778008693 | 18.33° C | 100% | 789.9 hPa | - | 1.34 m/s, 142° | - | - |
| 1778007971 | 18.33° C | 100% | 789.9 hPa | - | 0.89 m/s, 67° | - | - |
| 1778007241 | 18.33° C | 100% | 789.9 hPa | - | 0.89 m/s, 54° | - | - |
| 1778006508 | 18.89° C | 100% | 789.9 hPa | - | 1.79 m/s, 176° | - | - |
* Rain since midnight (hover to see other rain measurements)
** Current wind speed in m/s (hover to see current wind gust speed)